Flight Track Log - Related Links

Times and Time Zones

All times are in EDT time to prevent confusion due to time zone crossing. See the AFR445 flight status page for this flight to view local times or setup timezone preferences in your user account.

Time Position Orientation Groundspeed Altitude Reporting Facility
EDT Latitude Longitude Course Direction KTS MPH feet Rate Location/Type
Sat 06:15:02 PM -22.3703 -42.9883 43° Northeast  Level Estimated
Sat 06:16:02 PM -22.2614 -42.9253 44° Northeast  Level Estimated
Sat 06:17:02 PM -22.1526 -42.8623 46° Northeast  Level Estimated
Sat 06:18:02 PM -22.0437 -42.7995 47° Northeast  Level Estimated
Sat 06:19:02 PM -21.9348 -42.7367 49° Northeast  Level Estimated
Sat 06:20:02 PM -21.8259 -42.6741 52° Northeast  Level Estimated
Sat 06:21:02 PM -21.7170 -42.6115 55° Northeast  Level Estimated
Sat 06:22:02 PM -21.6080 -42.5490 59° Northeast  Level Estimated
Sat 06:23:02 PM -21.4991 -42.4866 64° Northeast  Level Estimated
Sat 06:24:02 PM -21.3900 -42.4244 71° East  Level Estimated
Sat 06:25:02 PM -21.2810 -42.3622 81° East  Level Estimated
Sat 06:26:02 PM -21.1720 -42.3001 93° East  Level Estimated
Sat 06:27:02 PM -21.0629 -42.2381 109° East  Level Estimated
Sat 06:28:02 PM -20.9538 -42.1761 126° Southeast  Level Estimated
Sat 06:29:02 PM -20.8447 -42.1143 142° Southeast  Level Estimated
Sat 06:30:02 PM -20.7355 -42.0526 155° Southeast  Level Estimated
Sat 06:31:02 PM -20.6264 -41.9909 165° South  Level Estimated
Sat 06:32:02 PM -20.5172 -41.9294 172° South  Level Estimated
Sat 06:33:02 PM -20.4080 -41.8679 177° South  Level Estimated
Sat 06:34:02 PM -20.2987 -41.8065 181° South  Level Estimated
Sat 06:35:02 PM -20.1895 -41.7452 184° South  Level Estimated
Sat 06:36:02 PM -20.0802 -41.6840 187° South  Level Estimated
Sat 06:37:02 PM -19.9709 -41.6229 189° South  Level Estimated
Sat 06:38:02 PM -19.8616 -41.5618 190° South  Level Estimated
Sat 06:39:02 PM -19.7523 -41.5009 192° South  Level Estimated
Sat 06:40:02 PM -19.6429 -41.4400 193° South  Level Estimated
Sat 06:41:02 PM -19.5336 -41.3792 194° South  Level Estimated
Sat 06:42:02 PM -19.4242 -41.3185 195° South  Level Estimated
Sat 06:43:02 PM -19.3148 -41.2579 196° South  Level Estimated
Sat 06:44:02 PM -19.2053 -41.1973 196° South  Level Estimated
Sat 06:45:02 PM -19.0959 -41.1368 197° South  Level Estimated
Sat 06:46:10 PM -21.1964 -41.8214 29° Northeast 476 548 31,000  Level FlightAware ADS-B
Sat 06:48:15 PM -20.9944 -41.7017 29° Northeast 495 570 31,000  Level FlightAware ADS-B
Sat 06:48:50 PM -20.8824 -41.6355 29° Northeast 494 568 31,000  Level FlightAware ADS-B
Sat 06:49:33 PM -20.7826 -41.5766 29° Northeast 494 568 31,000  Level FlightAware ADS-B
Sat 06:50:12 PM -20.7056 -41.5312 29° Northeast 494 568 31,000  Level FlightAware ADS-B
Sat 06:50:53 PM -20.6248 -41.4837 29° Northeast 496 571 31,000  Level FlightAware ADS-B
Sat 06:51:25 PM -20.5594 -41.4453 29° Northeast 494 568 31,000  Level FlightAware ADS-B
Sat 06:52:08 PM -20.4734 -41.3948 29° Northeast 493 567 31,000  Level FlightAware ADS-B
Sat 06:52:41 PM -20.4075 -41.3557 29° Northeast 494 568 31,000  Level FlightAware ADS-B
Sat 06:53:13 PM -20.3438 -41.3181 29° Northeast 496 571 31,000  Level FlightAware ADS-B
Sat 06:53:56 PM -20.2577 -41.2671 29° Northeast 496 571 31,000  Level FlightAware ADS-B
Sat 06:54:36 PM -20.2253 -41.2481 29° Northeast 498 573 31,000  Level FlightAware ADS-B
Sat 06:55:03 PM -20.1800 -41.2214 29° Northeast 498 573 31,000  Level FlightAware ADS-B
Sat 06:55:44 PM -20.0390 -41.1384 29° Northeast 494 568 31,000  Level FlightAware ADS-B
Sat 06:56:17 PM -19.9720 -41.0990 29° Northeast 494 568 31,000  Level FlightAware ADS-B
Sat 06:56:50 PM -19.9080 -41.0614 29° Northeast 494 568 31,000  Level FlightAware ADS-B
Sat 06:57:56 PM -19.7770 -40.9848 29° Northeast 492 566 31,000  Level FlightAware ADS-B
Sat 06:58:36 PM -19.6964 -40.9379 29° Northeast 490 564 31,000  Level FlightAware ADS-B
Sat 06:59:17 PM -19.6149 -40.8904 29° Northeast 488 562 31,000  Level FlightAware ADS-B
Sat 06:59:48 PM -19.5538 -40.8550 29° Northeast 487 560 31,000  Level FlightAware ADS-B
Sat 07:03:32 PM -19.1188 -40.6040 29° Northeast 481 554 31,000  Level FlightAware ADS-B
Sat 07:04:07 PM -19.0429 -40.5603 29° Northeast 481 554 31,000  Level FlightAware ADS-B
Sat 07:04:50 PM -18.9573 -40.5111 28° Northeast 481 554 31,000  Level FlightAware ADS-B
Sat 07:05:25 PM -18.8926 -40.4740 28° Northeast 480 552 31,000  Level FlightAware ADS-B
Sat 07:06:06 PM -18.8036 -40.4230 28° Northeast 480 552 31,000  Level FlightAware ADS-B
Sat 07:06:39 PM -18.7479 -40.3911 28° Northeast 479 551 31,000  Level FlightAware ADS-B
Sat 07:07:41 PM -18.6240 -40.3203 28° Northeast 480 552 31,000  Level FlightAware ADS-B
Sat 07:08:13 PM -18.5623 -40.2850 28° Northeast 482 555 31,000  Level FlightAware ADS-B
Sat 07:08:55 PM -18.4768 -40.2363 28° Northeast 483 556 31,000  Level FlightAware ADS-B
Sat 07:09:48 PM -18.3775 -40.1797 28° Northeast 482 555 31,000  Level FlightAware ADS-B
Sat 07:12:36 PM -18.0590 -39.9986 28° Northeast 485 558 31,000  Level FlightAware ADS-B
Sat 07:14:12 PM -17.8564 -39.8831 29° Northeast 481 554 31,000  Level FlightAware ADS-B
Sat 07:15:36 PM -17.6990 -39.7933 28° Northeast 481 554 31,000  Level FlightAware ADS-B
Sat 07:16:07 PM -17.6261 -39.7519 28° Northeast 482 555 31,000 55 Level FlightAware ADS-B
Sat 07:24:02 PM -16.7495 -39.2857 28° Northeast  Level Estimated
Sat 07:25:02 PM -16.6386 -39.2271 28° Northeast  Level Estimated
Sat 07:26:02 PM -16.5278 -39.1686 28° Northeast  Level Estimated
Sat 07:27:02 PM -16.4170 -39.1102 28° Northeast  Level Estimated
Sat 07:28:02 PM -16.3061 -39.0518 28° Northeast  Level Estimated
Sat 07:29:02 PM -16.1952 -38.9935 28° Northeast  Level Estimated
Sat 07:30:02 PM -16.0844 -38.9352 28° Northeast  Level Estimated
Sat 07:31:02 PM -15.9734 -38.8771 28° Northeast  Level Estimated
Sat 07:32:02 PM -15.8625 -38.8189 28° Northeast  Level Estimated
Sat 07:33:02 PM -15.7516 -38.7609 28° Northeast  Level Estimated
Sat 07:34:02 PM -15.6406 -38.7029 28° Northeast  Level Estimated
Sat 07:35:02 PM -15.5297 -38.6450 28° Northeast  Level Estimated
Sat 07:36:02 PM -15.4187 -38.5871 28° Northeast  Level Estimated
Sat 07:37:02 PM -15.3077 -38.5293 28° Northeast  Level Estimated
Sat 07:38:02 PM -15.1967 -38.4716 28° Northeast  Level Estimated
Sat 07:39:02 PM -15.0856 -38.4139 28° Northeast  Level Estimated
Sat 07:40:02 PM -14.9746 -38.3563 28° Northeast  Level Estimated
Sat 07:41:02 PM -14.8635 -38.2987 28° Northeast  Level Estimated
Sat 07:42:02 PM -14.7525 -38.2412 28° Northeast  Level Estimated
Sat 07:43:02 PM -14.6414 -38.1838 28° Northeast  Level Estimated
Sat 07:44:02 PM -14.5303 -38.1264 28° Northeast  Level Estimated
Sat 07:45:02 PM -14.4192 -38.0691 28° Northeast  Level Estimated
Sat 07:46:02 PM -14.3080 -38.0118 28° Northeast  Level Estimated
Sat 07:47:02 PM -14.1969 -37.9546 28° Northeast  Level Estimated
Sat 07:48:02 PM -14.0857 -37.8974 29° Northeast  Level Estimated
Sat 07:49:02 PM -13.9746 -37.8403 29° Northeast  Level Estimated
Sat 07:50:02 PM -13.8634 -37.7833 29° Northeast  Level Estimated
Sat 07:51:02 PM -13.7522 -37.7263 29° Northeast  Level Estimated
Sat 07:52:02 PM -13.6410 -37.6694 29° Northeast  Level Estimated
Sat 07:53:02 PM -13.5298 -37.6125 29° Northeast  Level Estimated
Sat 07:54:02 PM -13.4185 -37.5556 29° Northeast  Level Estimated
Sat 07:55:02 PM -13.3073 -37.4989 29° Northeast  Level Estimated
Sat 07:56:02 PM -13.1960 -37.4422 29° Northeast  Level Estimated
Sat 07:57:02 PM -13.0848 -37.3855 29° Northeast  Level Estimated
Sat 07:58:02 PM -12.9735 -37.3289 29° Northeast  Level Estimated
Sat 07:59:02 PM -12.8622 -37.2723 29° Northeast  Level Estimated
Sat 08:00:02 PM -12.7509 -37.2158 29° Northeast  Level Estimated
Sat 08:01:02 PM -12.6396 -37.1593 29° Northeast  Level Estimated
Sat 08:02:02 PM -12.5282 -37.1029 29° Northeast  Level Estimated
Sat 08:03:02 PM -12.4169 -37.0465 29° Northeast  Level Estimated
Sat 08:04:02 PM -12.3055 -36.9902 29° Northeast  Level Estimated
Sat 08:05:02 PM -12.1942 -36.9339 30° Northeast  Level Estimated
Sat 08:06:02 PM -12.0828 -36.8777 30° Northeast  Level Estimated
Sat 08:07:02 PM -11.9714 -36.8215 30° Northeast  Level Estimated
Sat 08:08:02 PM -11.8600 -36.7654 30° Northeast  Level Estimated
Sat 08:09:02 PM -11.7486 -36.7093 30° Northeast  Level Estimated
Sat 08:10:02 PM -11.6372 -36.6532 30° Northeast  Level Estimated
Sat 08:11:02 PM -11.5257 -36.5972 30° Northeast  Level Estimated
Sat 08:12:02 PM -11.4143 -36.5412 31° Northeast  Level Estimated
Sat 08:13:02 PM -11.3035 -36.4857 31° Northeast  Level Estimated
Sat 08:14:02 PM -11.1927 -36.4301 31° Northeast  Level Estimated
Sat 08:15:02 PM -11.0819 -36.3746 31° Northeast  Level Estimated
Sat 08:16:02 PM -10.9711 -36.3192 32° Northeast  Level Estimated
Sat 08:17:02 PM -10.8603 -36.2638 32° Northeast  Level Estimated
Sat 08:18:02 PM -10.7494 -36.2084 32° Northeast  Level Estimated
Sat 08:19:02 PM -10.6386 -36.1531 33° Northeast  Level Estimated
Sat 08:20:02 PM -10.5277 -36.0978 34° Northeast  Level Estimated
Sat 08:21:02 PM -10.4168 -36.0425 34° Northeast  Level Estimated
Sat 08:22:02 PM -10.3060 -35.9873 35° Northeast  Level Estimated
Sat 08:23:02 PM -10.1951 -35.9322 36° Northeast  Level Estimated
Sat 08:24:02 PM -10.0842 -35.8770 37° Northeast  Level Estimated
Sat 08:25:02 PM -9.9733 -35.8219 39° Northeast  Level Estimated
Sat 08:26:02 PM -9.8624 -35.7669 41° Northeast  Level Estimated
Sat 08:27:02 PM -9.7514 -35.7119 44° Northeast  Level Estimated
Sat 08:28:11 PM -9.2882 -35.2666 28° Northeast 470 541 35,000  Level FlightAware ADS-B
Sat 08:28:36 PM -9.2309 -35.2357 28° Northeast 468 539 35,000  Level FlightAware ADS-B
Sat 08:31:14 PM -8.9230 -35.0698 28° Northeast 468 539 35,000  Level FlightAware ADS-B
Sat 08:31:52 PM -8.8627 -35.0374 28° Northeast 468 539 35,000  Level FlightAware ADS-B
Sat 08:32:29 PM -8.7803 -34.9931 28° Northeast 469 540 35,000  Level FlightAware ADS-B
Sat 08:33:07 PM -8.7082 -34.9543 28° Northeast 469 540 35,000  Level FlightAware ADS-B
Sat 08:33:45 PM -8.6307 -34.9127 28° Northeast 468 539 35,000  Level FlightAware ADS-B
Sat 08:34:22 PM -8.5636 -34.8767 28° Northeast 467 537 35,000  Level FlightAware ADS-B
Sat 08:34:56 PM -8.4948 -34.8397 28° Northeast 467 537 35,000  Level FlightAware ADS-B
Sat 08:35:34 PM -8.4230 -34.8012 28° Northeast 468 539 35,000  Level FlightAware ADS-B
Sat 08:36:12 PM -8.3534 -34.7639 28° Northeast 468 539 35,000  Level FlightAware ADS-B
Sat 08:36:50 PM -8.2764 -34.7226 28° Northeast 467 537 35,000  Level FlightAware ADS-B
Sat 08:38:29 PM -8.1035 -34.6300 28° Northeast 467 537 35,000  Level FlightAware ADS-B
Sat 08:39:06 PM -8.0155 -34.5828 28° Northeast 466 536 35,000  Level FlightAware ADS-B
Sat 08:39:43 PM -7.9447 -34.5450 28° Northeast 465 535 35,000  Level FlightAware ADS-B
Sat 08:40:29 PM -7.8570 -34.4981 27° Northeast 463 533 35,000  Level FlightAware ADS-B
Sat 08:41:07 PM -7.7869 -34.4623 20° North 462 532 35,000  Level FlightAware ADS-B
Sat 08:41:45 PM -7.7102 -34.4344 14° North 460 529 35,000  Level FlightAware ADS-B
Sat 08:42:18 PM -7.6317 -34.4146 14° North 461 531 35,000  Level FlightAware ADS-B
Sat 08:42:56 PM -7.5617 -34.3972 14° North 460 529 35,000  Level FlightAware ADS-B
Sat 08:43:33 PM -7.4853 -34.3785 14° North 461 531 35,000  Level FlightAware ADS-B
Sat 08:44:11 PM -7.4058 -34.3589 14° North 461 531 35,000  Level FlightAware ADS-B
Sat 08:44:48 PM -7.3324 -34.3410 14° North 461 531 35,000  Level FlightAware ADS-B
Sat 08:45:22 PM -7.2526 -34.3214 14° North 462 532 35,000  Level FlightAware ADS-B
Sat 08:45:59 PM -7.1796 -34.3035 14° North 462 532 35,000  Level FlightAware ADS-B
Sat 08:46:37 PM -7.1026 -34.2847 14° North 463 533 35,000  Level FlightAware ADS-B
Sat 08:47:14 PM -7.0234 -34.2652 14° North 464 534 35,000  Level FlightAware ADS-B
Sat 08:47:52 PM -6.9435 -34.2457 14° North 463 533 35,000  Level FlightAware ADS-B
Sat 08:49:30 PM -6.7472 -34.1976 14° North 464 534 35,000  Level FlightAware ADS-B
Sat 08:50:06 PM -6.6658 -34.1777 14° North 465 535 35,000  Level FlightAware ADS-B
Sat 08:50:43 PM -6.5983 -34.1611 14° North 464 534 35,000  Level FlightAware ADS-B
Sat 08:51:45 PM -6.4563 -34.1264 14° North 466 536 35,000  Level FlightAware ADS-B
Sat 08:52:18 PM -6.3798 -34.1077 14° North 465 535 35,000  Level FlightAware ADS-B
Sat 08:52:57 PM -6.3132 -34.0915 14° North 465 535 35,000  Level FlightAware ADS-B
Sat 08:53:35 PM -6.2331 -34.0719 14° North 463 533 35,000  Level FlightAware ADS-B
Sat 08:54:37 PM -6.1195 -34.0442 27° Northeast 463 533 35,000 10 Level FlightAware ADS-B
Sat 09:02:02 PM -5.2954 -33.6431 27° Northeast  Level Estimated
Sat 09:03:02 PM -5.1842 -33.5891 27° Northeast  Level Estimated
Sat 09:04:02 PM -5.0731 -33.5351 27° Northeast  Level Estimated
Sat 09:05:02 PM -4.9619 -33.4812 27° Northeast  Level Estimated
Sat 09:06:02 PM -4.8508 -33.4272 27° Northeast  Level Estimated
Sat 09:07:02 PM -4.7396 -33.3733 27° Northeast  Level Estimated
Sat 09:08:02 PM -4.6285 -33.3194 27° Northeast  Level Estimated
Sat 09:09:02 PM -4.5173 -33.2655 27° Northeast  Level Estimated
Sat 09:10:02 PM -4.4061 -33.2117 27° Northeast  Level Estimated
Sat 09:11:02 PM -4.2950 -33.1578 27° Northeast  Level Estimated
Sat 09:12:02 PM -4.1838 -33.1040 27° Northeast  Level Estimated
Sat 09:13:02 PM -4.0726 -33.0501 27° Northeast  Level Estimated
Sat 09:14:02 PM -3.9614 -32.9963 27° Northeast  Level Estimated
Sat 09:15:02 PM -3.8502 -32.9425 27° Northeast  Level Estimated
Sat 09:16:02 PM -3.7390 -32.8888 27° Northeast  Level Estimated
Sat 09:17:02 PM -3.6279 -32.8350 27° Northeast  Level Estimated
Sat 09:18:02 PM -3.5166 -32.7812 27° Northeast  Level Estimated
Sat 09:19:02 PM -3.4055 -32.7275 27° Northeast  Level Estimated
Sat 09:20:02 PM -3.2943 -32.6738 27° Northeast  Level Estimated
Sat 09:21:02 PM -3.1830 -32.6201 27° Northeast  Level Estimated
Sat 09:22:02 PM -3.0718 -32.5664 27° Northeast  Level Estimated
Sat 09:23:02 PM -2.9606 -32.5127 27° Northeast  Level Estimated
Sat 09:24:02 PM -2.8494 -32.4590 27° Northeast  Level Estimated
Sat 09:25:02 PM -2.7382 -32.4053 27° Northeast  Level Estimated
Sat 09:26:02 PM -2.6270 -32.3517 27° Northeast  Level Estimated
Sat 09:27:02 PM -2.5157 -32.2980 27° Northeast  Level Estimated
Sat 09:28:02 PM -2.4045 -32.2444 27° Northeast  Level Estimated
Sat 09:29:02 PM -2.2933 -32.1907 27° Northeast  Level Estimated
Sat 09:30:02 PM -2.1821 -32.1371 27° Northeast  Level Estimated
Sat 09:31:02 PM -2.0708 -32.0835 27° Northeast  Level Estimated
Sat 09:32:02 PM -1.9596 -32.0299 27° Northeast  Level Estimated
Sat 09:33:02 PM -1.8484 -31.9763 27° Northeast  Level Estimated
Sat 09:34:02 PM -1.7371 -31.9227 27° Northeast  Level Estimated
Sat 09:35:02 PM -1.6259 -31.8691 27° Northeast  Level Estimated
Sat 09:36:02 PM -1.5146 -31.8155 27° Northeast  Level Estimated
Sat 09:37:02 PM -1.4034 -31.7619 27° Northeast  Level Estimated
Sat 09:38:02 PM -1.2922 -31.7084 27° Northeast  Level Estimated
Sat 09:39:02 PM -1.1809 -31.6548 27° Northeast  Level Estimated
Sat 09:40:02 PM -1.0697 -31.6012 27° Northeast  Level Estimated
Sat 09:41:02 PM -0.9585 -31.5477 27° Northeast  Level Estimated
Sat 09:42:02 PM -0.8472 -31.4941 27° Northeast  Level Estimated
Sat 09:43:02 PM -0.7359 -31.4406 27° Northeast  Level Estimated
Sat 09:44:02 PM -0.6247 -31.3870 27° Northeast  Level Estimated
Sat 09:45:02 PM -0.5135 -31.3335 27° Northeast  Level Estimated
Sat 09:46:02 PM -0.4022 -31.2799 27° Northeast  Level Estimated
Sat 09:47:02 PM -0.2910 -31.2264 27° Northeast  Level Estimated
Sat 09:48:02 PM -0.1797 -31.1728 27° Northeast  Level Estimated
Sat 09:49:02 PM -0.0684 -31.1193 27° Northeast  Level Estimated
Sat 09:50:02 PM 0.0428 -31.0657 27° Northeast  Level Estimated
Sat 09:51:02 PM 0.1540 -31.0122 27° Northeast  Level Estimated
Sat 09:52:02 PM 0.2653 -30.9587 27° Northeast  Level Estimated
Sat 09:53:02 PM 0.3765 -30.9051 27° Northeast  Level Estimated
Sat 09:54:02 PM 0.4878 -30.8516 27° Northeast  Level Estimated
Sat 09:55:02 PM 0.5990 -30.7980 27° Northeast  Level Estimated
Sat 09:56:02 PM 0.7103 -30.7445 27° Northeast  Level Estimated
Sat 09:57:02 PM 0.8216 -30.6909 27° Northeast  Level Estimated
Sat 09:58:02 PM 0.9328 -30.6374 27° Northeast  Level Estimated
Sat 09:59:02 PM 1.0440 -30.5838 27° Northeast  Level Estimated
Sat 10:00:02 PM 1.1553 -30.5302 27° Northeast  Level Estimated
Sat 10:01:02 PM 1.2665 -30.4767 27° Northeast  Level Estimated
Sat 10:02:02 PM 1.3778 -30.4231 27° Northeast  Level Estimated
Sat 10:03:02 PM 1.4890 -30.3695 27° Northeast  Level Estimated
Sat 10:04:02 PM 1.6002 -30.3159 27° Northeast  Level Estimated
Sat 10:05:02 PM 1.7115 -30.2623 27° Northeast  Level Estimated
Sat 10:06:02 PM 1.8227 -30.2087 27° Northeast  Level Estimated
Sat 10:07:02 PM 1.9339 -30.1551 27° Northeast  Level Estimated
Sat 10:08:02 PM 2.0452 -30.1015 27° Northeast  Level Estimated
Sat 10:09:02 PM 2.1564 -30.0479 27° Northeast  Level Estimated
Sat 10:10:02 PM 2.2676 -29.9943 27° Northeast  Level Estimated
Sat 10:11:02 PM 2.3789 -29.9407 27° Northeast  Level Estimated
Sat 10:12:02 PM 2.4901 -29.8870 27° Northeast  Level Estimated
Sat 10:13:02 PM 2.5995 -29.8342 27° Northeast  Level Estimated
Sat 10:14:02 PM 2.7089 -29.7815 27° Northeast  Level Estimated
Sat 10:15:02 PM 2.8184 -29.7287 27° Northeast  Level Estimated
Sat 10:16:02 PM 2.9278 -29.6758 27° Northeast  Level Estimated
Sat 10:17:02 PM 3.0372 -29.6230 27° Northeast  Level Estimated
Sat 10:18:02 PM 3.1466 -29.5702 27° Northeast  Level Estimated
Sat 10:19:02 PM 3.2560 -29.5174 27° Northeast  Level Estimated
Sat 10:20:02 PM 3.3654 -29.4645 27° Northeast  Level Estimated
Sat 10:21:02 PM 3.4748 -29.4116 27° Northeast  Level Estimated
Sat 10:22:02 PM 3.5842 -29.3588 27° Northeast  Level Estimated
Sat 10:23:02 PM 3.6936 -29.3059 27° Northeast  Level Estimated
Sat 10:24:02 PM 3.8030 -29.2530 27° Northeast  Level Estimated
Sat 10:25:02 PM 3.9124 -29.2001 27° Northeast  Level Estimated
Sat 10:26:02 PM 4.0218 -29.1471 27° Northeast  Level Estimated
Sat 10:27:02 PM 4.1312 -29.0942 27° Northeast  Level Estimated
Sat 10:28:02 PM 4.2406 -29.0412 27° Northeast  Level Estimated
Sat 10:29:02 PM 4.3499 -28.9882 27° Northeast  Level Estimated
Sat 10:30:02 PM 4.4593 -28.9352 27° Northeast  Level Estimated
Sat 10:31:02 PM 4.5687 -28.8822 27° Northeast  Level Estimated
Sat 10:32:02 PM 4.6780 -28.8292 27° Northeast  Level Estimated
Sat 10:33:02 PM 4.7874 -28.7762 27° Northeast  Level Estimated
Sat 10:34:02 PM 4.8968 -28.7231 27° Northeast  Level Estimated
Sat 10:35:02 PM 5.0061 -28.6700 27° Northeast  Level Estimated
Sat 10:36:02 PM 5.1155 -28.6170 27° Northeast  Level Estimated
Sat 10:37:02 PM 5.2248 -28.5639 27° Northeast  Level Estimated
Sat 10:38:02 PM 5.3341 -28.5107 27° Northeast  Level Estimated
Sat 10:39:02 PM 5.4435 -28.4576 27° Northeast  Level Estimated
Sat 10:40:02 PM 5.5528 -28.4044 27° Northeast  Level Estimated
Sat 10:41:02 PM 5.6621 -28.3512 27° Northeast  Level Estimated
Sat 10:42:02 PM 5.7715 -28.2980 27° Northeast  Level Estimated
Sat 10:43:02 PM 5.8808 -28.2448 27° Northeast  Level Estimated
Sat 10:44:02 PM 5.9901 -28.1915 27° Northeast  Level Estimated
Sat 10:45:02 PM 6.0994 -28.1383 27° Northeast  Level Estimated
Sat 10:46:02 PM 6.2087 -28.0850 27° Northeast  Level Estimated
Sat 10:47:02 PM 6.3180 -28.0317 27° Northeast  Level Estimated
Sat 10:48:02 PM 6.4273 -27.9783 27° Northeast  Level Estimated
Sat 10:49:02 PM 6.5366 -27.9250 27° Northeast  Level Estimated
Sat 10:50:02 PM 6.6459 -27.8716 27° Northeast  Level Estimated
Sat 10:51:02 PM 6.7551 -27.8182 27° Northeast  Level Estimated
Sat 10:52:02 PM 6.8644 -27.7647 27° Northeast  Level Estimated
Sat 10:53:02 PM 6.9736 -27.7113 27° Northeast  Level Estimated
Sat 10:54:02 PM 7.0829 -27.6578 27° Northeast  Level Estimated
Sat 10:55:02 PM 7.1922 -27.6043 27° Northeast  Level Estimated
Sat 10:56:02 PM 7.3014 -27.5508 27° Northeast  Level Estimated
Sat 10:57:02 PM 7.4106 -27.4972 27° Northeast  Level Estimated
Sat 10:58:02 PM 7.5199 -27.4437 27° Northeast  Level Estimated
Sat 10:59:02 PM 7.6291 -27.3901 27° Northeast  Level Estimated
Sat 11:00:02 PM 7.7383 -27.3364 27° Northeast  Level Estimated
Sat 11:01:02 PM 7.8475 -27.2827 27° Northeast  Level Estimated
Sat 11:02:02 PM 7.9567 -27.2291 27° Northeast  Level Estimated
Sat 11:03:02 PM 8.0659 -27.1753 27° Northeast  Level Estimated
Sat 11:04:02 PM 8.1751 -27.1216 27° Northeast  Level Estimated
Sat 11:05:02 PM 8.2843 -27.0678 27° Northeast  Level Estimated
Sat 11:06:02 PM 8.3935 -27.0140 27° Northeast  Level Estimated
Sat 11:07:02 PM 8.5026 -26.9602 27° Northeast  Level Estimated
Sat 11:08:02 PM 8.6118 -26.9063 27° Northeast  Level Estimated
Sat 11:09:02 PM 8.7210 -26.8524 27° Northeast  Level Estimated
Sat 11:10:02 PM 8.8301 -26.7985 27° Northeast  Level Estimated
Sat 11:11:02 PM 8.9392 -26.7445 27° Northeast  Level Estimated
Sat 11:12:02 PM 9.0484 -26.6905 27° Northeast  Level Estimated
Sat 11:13:02 PM 9.1575 -26.6365 28° Northeast  Level Estimated
Sat 11:14:02 PM 9.2666 -26.5824 28° Northeast  Level Estimated
Sat 11:15:02 PM 9.3757 -26.5283 28° Northeast  Level Estimated
Sat 11:16:02 PM 9.4848 -26.4742 28° Northeast  Level Estimated
Sat 11:17:02 PM 9.5939 -26.4200 28° Northeast  Level Estimated
Sat 11:18:02 PM 9.7030 -26.3658 28° Northeast  Level Estimated
Sat 11:19:02 PM 9.8120 -26.3116 28° Northeast  Level Estimated
Sat 11:20:02 PM 9.9211 -26.2573 28° Northeast  Level Estimated
Sat 11:21:02 PM 10.0302 -26.2030 28° Northeast  Level Estimated
Sat 11:22:02 PM 10.1392 -26.1487 28° Northeast  Level Estimated
Sat 11:23:02 PM 10.2483 -26.0943 28° Northeast  Level Estimated
Sat 11:24:02 PM 10.3573 -26.0399 28° Northeast  Level Estimated
Sat 11:25:02 PM 10.4663 -25.9854 28° Northeast  Level Estimated
Sat 11:26:02 PM 10.5753 -25.9309 28° Northeast  Level Estimated
Sat 11:27:02 PM 10.6843 -25.8764 28° Northeast  Level Estimated
Sat 11:28:02 PM 10.7933 -25.8218 28° Northeast  Level Estimated
Sat 11:29:02 PM 10.9023 -25.7672 28° Northeast  Level Estimated
Sat 11:30:02 PM 11.0113 -25.7125 28° Northeast  Level Estimated
Sat 11:31:02 PM 11.1202 -25.6579 28° Northeast  Level Estimated
Sat 11:32:02 PM 11.2292 -25.6031 28° Northeast  Level Estimated
Sat 11:33:02 PM 11.3381 -25.5483 28° Northeast  Level Estimated
Sat 11:34:02 PM 11.4470 -25.4935 28° Northeast  Level Estimated
Sat 11:35:02 PM 11.5560 -25.4387 28° Northeast  Level Estimated
Sat 11:36:02 PM 11.6649 -25.3838 28° Northeast  Level Estimated
Sat 11:37:02 PM 11.7738 -25.3288 28° Northeast  Level Estimated
Sat 11:38:02 PM 11.8827 -25.2738 28° Northeast  Level Estimated
Sat 11:39:02 PM 11.9915 -25.2188 28° Northeast  Level Estimated
Sat 11:40:02 PM 12.1004 -25.1637 28° Northeast  Level Estimated
Sat 11:41:02 PM 12.2093 -25.1086 28° Northeast  Level Estimated
Sat 11:42:02 PM 12.3181 -25.0534 28° Northeast  Level Estimated
Sat 11:43:02 PM 12.4270 -24.9982 28° Northeast  Level Estimated
Sat 11:44:02 PM 12.5358 -24.9430 28° Northeast  Level Estimated
Sat 11:45:02 PM 12.6446 -24.8877 28° Northeast  Level Estimated
Sat 11:46:02 PM 12.7534 -24.8323 28° Northeast  Level Estimated
Sat 11:47:02 PM 12.8622 -24.7769 28° Northeast  Level Estimated
Sat 11:48:02 PM 12.9710 -24.7215 28° Northeast  Level Estimated
Sat 11:49:02 PM 13.0797 -24.6660 28° Northeast  Level Estimated
Sat 11:50:02 PM 13.1885 -24.6104 28° Northeast  Level Estimated
Sat 11:51:02 PM 13.2972 -24.5548 28° Northeast  Level Estimated
Sat 11:52:02 PM 13.4060 -24.4992 28° Northeast  Level Estimated
Sat 11:53:02 PM 13.5147 -24.4435 28° Northeast  Level Estimated
Sat 11:54:02 PM 13.6234 -24.3877 28° Northeast  Level Estimated
Sat 11:55:02 PM 13.7321 -24.3319 28° Northeast  Level Estimated
Sat 11:56:02 PM 13.8408 -24.2761 28° Northeast  Level Estimated
Sat 11:57:02 PM 13.9494 -24.2202 29° Northeast  Level Estimated
Sat 11:58:02 PM 14.0581 -24.1642 29° Northeast  Level Estimated
Sat 11:59:02 PM 14.1667 -24.1082 29° Northeast  Level Estimated
Sun 12:00:02 AM 14.2754 -24.0522 29° Northeast  Level Estimated
Sun 12:01:02 AM 14.3840 -23.9960 29° Northeast  Level Estimated
Sun 12:02:02 AM 14.4926 -23.9399 29° Northeast  Level Estimated
Sun 12:03:02 AM 14.6012 -23.8837 29° Northeast  Level Estimated
Sun 12:04:02 AM 14.7098 -23.8274 29° Northeast  Level Estimated
Sun 12:05:02 AM 14.8183 -23.7710 29° Northeast  Level Estimated
Sun 12:06:02 AM 14.9269 -23.7146 29° Northeast  Level Estimated
Sun 12:07:02 AM 15.0354 -23.6582 29° Northeast  Level Estimated
Sun 12:08:02 AM 15.1439 -23.6017 29° Northeast  Level Estimated
Sun 12:09:02 AM 15.2524 -23.5451 29° Northeast  Level Estimated
Sun 12:10:02 AM 15.3609 -23.4885 29° Northeast  Level Estimated
Sun 12:11:02 AM 15.4694 -23.4318 29° Northeast  Level Estimated
Sun 12:12:02 AM 15.5779 -23.3751 29° Northeast  Level Estimated
Sun 12:13:02 AM 15.6863 -23.3183 29° Northeast  Level Estimated
Sun 12:14:02 AM 15.7948 -23.2614 29° Northeast  Level Estimated
Sun 12:15:02 AM 15.9032 -23.2045 29° Northeast  Level Estimated
Sun 12:16:02 AM 16.0116 -23.1475 29° Northeast  Level Estimated
Sun 12:17:02 AM 16.1200 -23.0905 29° Northeast  Level Estimated
Sun 12:18:02 AM 16.2284 -23.0334 29° Northeast  Level Estimated
Sun 12:19:02 AM 16.3367 -22.9762 29° Northeast  Level Estimated
Sun 12:20:02 AM 16.4451 -22.9190 29° Northeast  Level Estimated
Sun 12:21:02 AM 16.5534 -22.8617 29° Northeast  Level Estimated
Sun 12:22:02 AM 16.6617 -22.8043 29° Northeast  Level Estimated
Sun 12:23:02 AM 16.7700 -22.7469 29° Northeast  Level Estimated
Sun 12:24:02 AM 16.8783 -22.6894 29° Northeast  Level Estimated
Sun 12:25:02 AM 16.9866 -22.6318 30° Northeast  Level Estimated
Sun 12:26:02 AM 17.0948 -22.5742 30° Northeast  Level Estimated
Sun 12:27:02 AM 17.2031 -22.5165 30° Northeast  Level Estimated
Sun 12:28:02 AM 17.3113 -22.4587 30° Northeast  Level Estimated
Sun 12:29:02 AM 17.4195 -22.4009 30° Northeast  Level Estimated
Sun 12:30:02 AM 17.5277 -22.3430 30° Northeast  Level Estimated
Sun 12:31:02 AM 17.6358 -22.2850 30° Northeast  Level Estimated
Sun 12:32:02 AM 17.7440 -22.2270 30° Northeast  Level Estimated
Sun 12:33:02 AM 17.8521 -22.1689 30° Northeast  Level Estimated
Sun 12:34:02 AM 17.9602 -22.1107 30° Northeast  Level Estimated
Sun 12:35:02 AM 18.0683 -22.0525 30° Northeast  Level Estimated
Sun 12:36:02 AM 18.1764 -21.9941 30° Northeast  Level Estimated
Sun 12:37:02 AM 18.2845 -21.9357 30° Northeast  Level Estimated
Sun 12:38:02 AM 18.3925 -21.8773 30° Northeast  Level Estimated
Sun 12:39:02 AM 18.5006 -21.8187 30° Northeast  Level Estimated
Sun 12:40:02 AM 18.6086 -21.7601 30° Northeast  Level Estimated
Sun 12:41:02 AM 18.7166 -21.7014 30° Northeast  Level Estimated
Sun 12:42:02 AM 18.8245 -21.6427 30° Northeast  Level Estimated
Sun 12:43:02 AM 18.9325 -21.5838 30° Northeast  Level Estimated
Sun 12:44:02 AM 19.0404 -21.5249 31° Northeast  Level Estimated
Sun 12:45:02 AM 19.1483 -21.4659 31° Northeast  Level Estimated
Sun 12:46:02 AM 19.2563 -21.4069 31° Northeast  Level Estimated
Sun 12:47:02 AM 19.3641 -21.3477 31° Northeast  Level Estimated
Sun 12:48:02 AM 19.4720 -21.2885 31° Northeast  Level Estimated
Sun 12:49:02 AM 19.5798 -21.2292 31° Northeast  Level Estimated
Sun 12:50:02 AM 19.6877 -21.1698 31° Northeast  Level Estimated
Sun 12:51:02 AM 19.7955 -21.1104 31° Northeast  Level Estimated
Sun 12:52:02 AM 19.9032 -21.0508 31° Northeast  Level Estimated
Sun 12:53:02 AM 20.0110 -20.9912 31° Northeast  Level Estimated
Sun 12:54:02 AM 20.1187 -20.9315 31° Northeast  Level Estimated
Sun 12:55:02 AM 20.2264 -20.8717 31° Northeast  Level Estimated
Sun 12:56:02 AM 20.3342 -20.8118 31° Northeast  Level Estimated
Sun 12:57:02 AM 20.4418 -20.7519 32° Northeast  Level Estimated
Sun 12:58:02 AM 20.5495 -20.6918 32° Northeast  Level Estimated
Sun 12:59:02 AM 20.6571 -20.6317 32° Northeast  Level Estimated
Sun 01:00:02 AM 20.7647 -20.5715 32° Northeast  Level Estimated
Sun 01:01:02 AM 20.8724 -20.5112 32° Northeast  Level Estimated
Sun 01:02:02 AM 20.9799 -20.4508 32° Northeast  Level Estimated
Sun 01:03:02 AM 21.0875 -20.3904 32° Northeast  Level Estimated
Sun 01:04:02 AM 21.1950 -20.3298 32° Northeast  Level Estimated
Sun 01:05:02 AM 21.3025 -20.2692 32° Northeast  Level Estimated
Sun 01:06:02 AM 21.4100 -20.2084 32° Northeast  Level Estimated
Sun 01:07:02 AM 21.5175 -20.1476 33° Northeast  Level Estimated
Sun 01:08:02 AM 21.6250 -20.0867 33° Northeast  Level Estimated
Sun 01:09:02 AM 21.7324 -20.0257 33° Northeast  Level Estimated
Sun 01:10:02 AM 21.8398 -19.9646 33° Northeast  Level Estimated
Sun 01:11:02 AM 21.9472 -19.9034 33° Northeast  Level Estimated
Sun 01:12:02 AM 22.0545 -19.8422 33° Northeast  Level Estimated
Sun 01:13:02 AM 22.1619 -19.7808 33° Northeast  Level Estimated
Sun 01:14:02 AM 22.2692 -19.7193 33° Northeast  Level Estimated
Sun 01:15:02 AM 22.3765 -19.6578 34° Northeast  Level Estimated
Sun 01:16:02 AM 22.4837 -19.5961 34° Northeast  Level Estimated
Sun 01:17:02 AM 22.5910 -19.5344 34° Northeast  Level Estimated
Sun 01:18:02 AM 22.6982 -19.4725 34° Northeast  Level Estimated
Sun 01:19:02 AM 22.8054 -19.4106 34° Northeast  Level Estimated
Sun 01:20:02 AM 22.9126 -19.3486 35° Northeast  Level Estimated
Sun 01:21:02 AM 23.0197 -19.2864 35° Northeast  Level Estimated
Sun 01:22:02 AM 23.1268 -19.2242 35° Northeast  Level Estimated
Sun 01:23:02 AM 23.2339 -19.1618 35° Northeast  Level Estimated
Sun 01:24:02 AM 23.3410 -19.0994 35° Northeast  Level Estimated
Sun 01:25:02 AM 23.4481 -19.0368 36° Northeast  Level Estimated
Sun 01:26:02 AM 23.5551 -18.9742 36° Northeast  Level Estimated
Sun 01:27:02 AM 23.6621 -18.9115 36° Northeast  Level Estimated
Sun 01:28:02 AM 23.7691 -18.8486 37° Northeast  Level Estimated
Sun 01:29:02 AM 23.8760 -18.7857 37° Northeast  Level Estimated
Sun 01:30:02 AM 23.9829 -18.7226 37° Northeast  Level Estimated
Sun 01:31:02 AM 24.0898 -18.6595 38° Northeast  Level Estimated
Sun 01:32:02 AM 24.1967 -18.5962 38° Northeast  Level Estimated
Sun 01:33:02 AM 24.3035 -18.5328 38° Northeast  Level Estimated
Sun 01:34:02 AM 24.4104 -18.4694 39° Northeast  Level Estimated
Sun 01:35:02 AM 24.5172 -18.4058 39° Northeast  Level Estimated
Sun 01:36:02 AM 24.6239 -18.3421 40° Northeast  Level Estimated
Sun 01:37:02 AM 24.7307 -18.2783 40° Northeast  Level Estimated
Sun 01:38:02 AM 24.8374 -18.2144 41° Northeast  Level Estimated
Sun 01:39:02 AM 24.9440 -18.1504 42° Northeast  Level Estimated
Sun 01:40:02 AM 25.0507 -18.0862 43° Northeast  Level Estimated
Sun 01:41:02 AM 25.1573 -18.0220 44° Northeast  Level Estimated
Sun 01:42:02 AM 25.2639 -17.9576 45° Northeast  Level Estimated
Sun 01:43:02 AM 25.3705 -17.8932 46° Northeast  Level Estimated
Sun 01:44:02 AM 25.4771 -17.8286 47° Northeast  Level Estimated
Sun 01:45:02 AM 25.5836 -17.7639 49° Northeast  Level Estimated
Sun 01:46:09 AM 26.5305 -16.5509 33° Northeast 479 551 38,000  Level FlightAware ADS-B
Sun 01:46:44 AM 26.6009 -16.5006 33° Northeast 481 554 38,000  Level FlightAware ADS-B
Sun 01:47:14 AM 26.6553 -16.4617 33° Northeast 482 555 38,000  Level FlightAware ADS-B
Sun 01:47:54 AM 26.7330 -16.4061 33° Northeast 484 557 38,000  Level FlightAware ADS-B
Sun 01:48:26 AM 26.7894 -16.3656 33° Northeast 478 550 38,000  Level FlightAware ADS-B
Sun 01:49:04 AM 26.8651 -16.3113 33° Northeast 484 557 38,000  Level FlightAware ADS-B
Sun 01:49:39 AM 26.9311 -16.2639 33° Northeast 480 552 38,000  Level FlightAware ADS-B
Sun 01:50:14 AM 26.9941 -16.2185 33° Northeast 479 551 38,000  Level FlightAware ADS-B
Sun 01:50:44 AM 27.0517 -16.1770 33° Northeast 478 550 38,000  Level FlightAware ADS-B
Sun 01:51:24 AM 27.1261 -16.1232 33° Northeast 477 549 38,000  Level FlightAware ADS-B
Sun 01:52:00 AM 27.1979 -16.0713 33° Northeast 476 548 38,000  Level FlightAware ADS-B
Sun 01:52:30 AM 27.2512 -16.0327 33° Northeast 476 548 38,000  Level FlightAware ADS-B
Sun 01:53:10 AM 27.3254 -15.9789 33° Northeast 475 547 38,000  Level FlightAware ADS-B
Sun 01:53:40 AM 27.3802 -15.9392 33° Northeast 476 548 38,000  Level FlightAware ADS-B
Sun 01:54:19 AM 27.4513 -15.8874 33° Northeast 477 549 38,000  Level FlightAware ADS-B
Sun 01:54:50 AM 27.5106 -15.8442 33° Northeast 477 549 38,000  Level FlightAware ADS-B
Sun 01:55:30 AM 27.5850 -15.7899 33° Northeast 479 551 38,000  Level FlightAware ADS-B
Sun 01:56:01 AM 27.6407 -15.7493 33° Northeast 478 550 38,000  Level FlightAware ADS-B
Sun 01:56:39 AM 27.7099 -15.6987 33° Northeast 476 548 38,000  Level FlightAware ADS-B
Sun 01:57:10 AM 27.7688 -15.6556 33° Northeast 478 550 38,000  Level FlightAware ADS-B
Sun 01:57:49 AM 27.8407 -15.6029 33° Northeast 477 549 38,000  Level FlightAware ADS-B
Sun 01:58:24 AM 27.9047 -15.5559 33° Northeast 479 551 38,000  Level FlightAware ADS-B
Sun 01:58:54 AM 27.9591 -15.5158 33° Northeast 479 551 38,000  Level FlightAware ADS-B
Sun 01:59:34 AM 28.0339 -15.4607 33° Northeast 479 551 38,000  Level FlightAware ADS-B
Sun 02:00:04 AM 28.0902 -15.4193 33° Northeast 480 552 38,000  Level FlightAware ADS-B
Sun 02:00:44 AM 28.1642 -15.3643 33° Northeast 480 552 38,000  Level FlightAware ADS-B
Sun 02:01:29 AM 28.2469 -15.3027 33° Northeast 481 554 38,000  Level FlightAware ADS-B
Sun 02:01:59 AM 28.3008 -15.2626 33° Northeast 481 554 38,000  Level FlightAware ADS-B
Sun 02:02:34 AM 28.3697 -15.2112 33° Northeast 482 555 38,000  Level FlightAware ADS-B
Sun 02:03:04 AM 28.4256 -15.1694 33° Northeast 482 555 38,000  Level FlightAware ADS-B
Sun 02:03:44 AM 28.5000 -15.1137 33° Northeast 482 555 38,000  Level FlightAware ADS-B
Sun 02:04:24 AM 28.5755 -15.0571 33° Northeast 484 557 38,000  Level FlightAware ADS-B
Sun 02:04:54 AM 28.6322 -15.0145 33° Northeast 483 556 38,000  Level FlightAware ADS-B
Sun 02:05:32 AM 28.6932 -14.9688 33° Northeast 483 556 38,000  Level FlightAware ADS-B
Sun 02:05:59 AM 28.7505 -14.9256 33° Northeast 481 554 38,000  Level FlightAware ADS-B
Sun 02:06:42 AM 28.8332 -14.8633 34° Northeast 480 552 38,000  Level FlightAware ADS-B
Sun 02:07:19 AM 28.9002 -14.8126 33° Northeast 480 552 38,000  Level FlightAware ADS-B
Sun 02:07:49 AM 28.9552 -14.7710 34° Northeast 481 554 38,000  Level FlightAware ADS-B
Sun 02:08:24 AM 29.0191 -14.7226 34° Northeast 482 555 38,000  Level FlightAware ADS-B
Sun 02:08:59 AM 29.0867 -14.6713 34° Northeast 483 556 38,000  Level FlightAware ADS-B
Sun 02:09:34 AM 29.1501 -14.6232 34° Northeast 482 555 38,000  Level FlightAware ADS-B
Sun 02:10:09 AM 29.2152 -14.5737 34° Northeast 482 555 38,000  Level FlightAware ADS-B
Sun 02:10:44 AM 29.2813 -14.5233 34° Northeast 481 554 38,000  Level FlightAware ADS-B
Sun 02:11:14 AM 29.3337 -14.4834 34° Northeast 481 554 38,000  Level FlightAware ADS-B
Sun 02:11:54 AM 29.4109 -14.4244 34° Northeast 481 554 38,000  Level FlightAware ADS-B
Sun 02:12:34 AM 29.4858 -14.3671 34° Northeast 481 554 38,000  Level FlightAware ADS-B
Sun 02:13:04 AM 29.5416 -14.3242 34° Northeast 481 554 38,000  Level FlightAware ADS-B
Sun 02:13:39 AM 29.6055 -14.2753 34° Northeast 482 555 38,000  Level FlightAware ADS-B
Sun 02:14:14 AM 29.6713 -14.2247 34° Northeast 483 556 38,000  Level FlightAware ADS-B
Sun 02:14:49 AM 29.7349 -14.1757 34° Northeast 483 556 38,000  Level FlightAware ADS-B
Sun 02:15:19 AM 29.7914 -14.1321 34° Northeast 483 556 38,000  Level FlightAware ADS-B
Sun 02:15:59 AM 29.8627 -14.0770 34° Northeast 483 556 38,000  Level FlightAware ADS-B
Sun 02:16:34 AM 29.9316 -14.0237 34° Northeast 484 557 38,000  Level FlightAware ADS-B
Sun 02:17:09 AM 29.9954 -13.9743 34° Northeast 485 558 38,000  Level FlightAware ADS-B
Sun 02:17:49 AM 30.0702 -13.9162 34° Northeast 486 559 38,000  Level FlightAware ADS-B
Sun 02:18:19 AM 30.1242 -13.8742 34° Northeast 486 559 38,000  Level FlightAware ADS-B
Sun 02:18:54 AM 30.1910 -13.8222 34° Northeast 485 558 38,000  Level FlightAware ADS-B
Sun 02:19:29 AM 30.2567 -13.7709 34° Northeast 484 557 38,000  Level FlightAware ADS-B
Sun 02:20:04 AM 30.3218 -13.7200 34° Northeast 483 556 38,000  Level FlightAware ADS-B
Sun 02:20:39 AM 30.3853 -13.6705 34° Northeast 483 556 38,000  Level FlightAware ADS-B
Sun 02:21:24 AM 30.4693 -13.6049 34° Northeast 484 557 38,000  Level FlightAware ADS-B
Sun 02:21:54 AM 30.5234 -13.5624 34° Northeast 484 557 38,000  Level FlightAware ADS-B
Sun 02:22:29 AM 30.5899 -13.5103 34° Northeast 484 557 38,000  Level FlightAware ADS-B
Sun 02:23:09 AM 30.6650 -13.4510 34° Northeast 481 554 38,000  Level FlightAware ADS-B
Sun 02:23:39 AM 30.7203 -13.4073 34° Northeast 481 554 38,000  Level FlightAware ADS-B
Sun 02:24:19 AM 30.7946 -13.3487 34° Northeast 482 555 38,000  Level FlightAware ADS-B
Sun 02:24:49 AM 30.8489 -13.3058 34° Northeast 483 556 38,000  Level FlightAware ADS-B
Sun 02:25:29 AM 30.9229 -13.2471 34° Northeast 483 556 38,000  Level FlightAware ADS-B
Sun 02:25:59 AM 30.9792 -13.2025 34° Northeast 482 555 38,000  Level FlightAware ADS-B
Sun 02:26:39 AM 31.0532 -13.1435 34° Northeast 482 555 38,000  Level FlightAware ADS-B
Sun 02:27:09 AM 31.1086 -13.0995 34° Northeast 483 556 38,000  Level FlightAware ADS-B
Sun 02:27:49 AM 31.1805 -13.0420 34° Northeast 483 556 38,000  Level FlightAware ADS-B
Sun 02:28:19 AM 31.2366 -12.9972 34° Northeast 482 555 38,000  Level FlightAware ADS-B
Sun 02:28:59 AM 31.3101 -12.9383 34° Northeast 481 554 38,000  Level FlightAware ADS-B
Sun 02:29:34 AM 31.3733 -12.8877 34° Northeast 479 551 38,000  Level FlightAware ADS-B
Sun 02:30:09 AM 31.4373 -12.8362 34° Northeast 475 547 38,000  Level FlightAware ADS-B
Sun 02:30:39 AM 31.4914 -12.7926 34° Northeast 472 543 38,000  Level FlightAware ADS-B
Sun 02:31:14 AM 31.5532 -12.7429 35° Northeast 470 541 38,000  Level FlightAware ADS-B
Sun 02:31:54 AM 31.6248 -12.6850 35° Northeast 468 539 38,000  Level FlightAware ADS-B
Sun 02:32:24 AM 31.6788 -12.6413 35° Northeast 467 537 38,000  Level FlightAware ADS-B
Sun 02:32:59 AM 31.7384 -12.5931 35° Northeast 464 534 38,000  Level FlightAware ADS-B
Sun 02:33:39 AM 31.8136 -12.5320 35° Northeast 464 534 38,000  Level FlightAware ADS-B
Sun 02:34:09 AM 31.8660 -12.4895 35° Northeast 462 532 38,000  Level FlightAware ADS-B
Sun 02:34:49 AM 31.9353 -12.4330 35° Northeast 459 528 38,000  Level FlightAware ADS-B
Sun 02:35:19 AM 31.9883 -12.3898 35° Northeast 457 526 38,000  Level FlightAware ADS-B
Sun 02:35:59 AM 32.0575 -12.3332 35° Northeast 454 522 38,000  Level FlightAware ADS-B
Sun 02:36:29 AM 32.1101 -12.2902 35° Northeast 453 521 38,000  Level FlightAware ADS-B
Sun 02:37:09 AM 32.1770 -12.2354 35° Northeast 454 522 38,000  Level FlightAware ADS-B
Sun 02:37:39 AM 32.2290 -12.1926 35° Northeast 455 524 38,000  Level FlightAware ADS-B
Sun 02:38:14 AM 32.2882 -12.1440 35° Northeast 455 524 38,000  Level FlightAware ADS-B
Sun 02:38:49 AM 32.3511 -12.0923 35° Northeast 457 526 38,000  Level FlightAware ADS-B
Sun 02:39:24 AM 32.4128 -12.0413 35° Northeast 459 528 38,000  Level FlightAware ADS-B
Sun 02:40:04 AM 32.4792 -11.9864 35° Northeast 461 531 38,000  Level FlightAware ADS-B
Sun 02:40:34 AM 32.5322 -11.9426 35° Northeast 463 533 38,000  Level FlightAware ADS-B
Sun 02:41:14 AM 32.6025 -11.8843 35° Northeast 463 533 38,000  Level FlightAware ADS-B
Sun 02:41:44 AM 32.6564 -11.8395 35° Northeast 464 534 38,000  Level FlightAware ADS-B
Sun 02:42:19 AM 32.7194 -11.7871 35° Northeast 464 534 38,000  Level FlightAware ADS-B
Sun 02:42:54 AM 32.7781 -11.7382 35° Northeast 464 534 38,000  Level FlightAware ADS-B
Sun 02:43:29 AM 32.8413 -11.6854 35° Northeast 464 534 38,000  Level FlightAware ADS-B
Sun 02:44:09 AM 32.9126 -11.6258 35° Northeast 464 534 38,000  Level FlightAware ADS-B
Sun 02:44:39 AM 32.9656 -11.5814 35° Northeast 462 532 38,000  Level FlightAware ADS-B
Sun 02:45:19 AM 33.0326 -11.5252 35° Northeast 462 532 38,000  Level FlightAware ADS-B
Sun 02:45:49 AM 33.0839 -11.4821 35° Northeast 461 531 38,000  Level FlightAware ADS-B
Sun 02:46:29 AM 33.1547 -11.4224 35° Northeast 461 531 38,000  Level FlightAware ADS-B
Sun 02:46:59 AM 33.2072 -11.3782 35° Northeast 461 531 38,000  Level FlightAware ADS-B
Sun 03:04:19 AM 35.0372 -9.7911 36° Northeast 461 531 38,000  Level FlightAware ADS-B
Sun 03:04:49 AM 35.0932 -9.7411 36° Northeast 460 529 38,000  Level FlightAware ADS-B
Sun 03:05:29 AM 35.1626 -9.6791 36° Northeast 461 531 38,000  Level FlightAware ADS-B
Sun 03:05:59 AM 35.2134 -9.6335 36° Northeast 461 531 38,000  Level FlightAware ADS-B
Sun 03:06:59 AM 35.3220 -9.5360 36° Northeast 460 529 38,000  Level FlightAware ADS-B
Sun 03:07:34 AM 35.3824 -9.4817 36° Northeast 461 531 38,000  Level FlightAware ADS-B
Sun 03:08:09 AM 35.4433 -9.4267 36° Northeast 459 528 38,000  Level FlightAware ADS-B
Sun 03:08:44 AM 35.5042 -9.3716 36° Northeast 459 528 38,000  Level FlightAware ADS-B
Sun 03:09:14 AM 35.5519 -9.3285 36° Northeast 465 535 38,000  Level FlightAware ADS-B
Sun 03:09:54 AM 35.6229 -9.2640 36° Northeast 464 534 38,000  Level FlightAware ADS-B
Sun 03:10:29 AM 35.6856 -9.2071 36° Northeast 464 534 38,000  Level FlightAware ADS-B
Sun 03:11:04 AM 35.7457 -9.1523 38° Northeast 466 536 38,000  Level FlightAware ADS-B
Sun 03:11:49 AM 35.8218 -9.0797 46° Northeast 465 535 38,000  Level FlightAware ADS-B
Sun 03:12:19 AM 35.8671 -9.0211 48° Northeast 471 542 38,000  Level FlightAware ADS-B
Sun 03:12:59 AM 35.9262 -8.9405 48° Northeast 469 540 38,000  Level FlightAware ADS-B
Sun 03:13:29 AM 35.9706 -8.8798 48° Northeast 467 537 38,000  Level FlightAware ADS-B
Sun 03:14:04 AM 36.0213 -8.8101 48° Northeast 467 537 38,000  Level FlightAware ADS-B
Sun 03:14:39 AM 36.0719 -8.7404 48° Northeast 467 537 38,000  Level FlightAware ADS-B
Sun 03:15:19 AM 36.1298 -8.6605 48° Northeast 468 539 38,000  Level FlightAware ADS-B
Sun 03:15:49 AM 36.1742 -8.5992 48° Northeast 469 540 38,000  Level FlightAware ADS-B
Sun 03:16:29 AM 36.2324 -8.5184 48° Northeast 471 542 38,000  Level FlightAware ADS-B
Sun 03:16:59 AM 36.2766 -8.4572 48° Northeast 472 543 38,000  Level FlightAware ADS-B
Sun 03:17:39 AM 36.3350 -8.3759 48° Northeast 472 543 38,000  Level FlightAware ADS-B
Sun 03:18:09 AM 36.3791 -8.3144 48° Northeast 472 543 38,000  Level FlightAware ADS-B
Sun 03:18:49 AM 36.4379 -8.2320 48° Northeast 472 543 38,000  Level FlightAware ADS-B
Sun 03:19:19 AM 36.4815 -8.1712 48° Northeast 471 542 38,000  Level FlightAware ADS-B
Sun 03:19:59 AM 36.5397 -8.0895 48° Northeast 471 542 38,000  Level FlightAware ADS-B
Sun 03:20:29 AM 36.5819 -8.0302 49° Northeast 470 541 38,000  Level FlightAware ADS-B
Sun 03:21:04 AM 36.6263 -7.9676 49° Northeast 470 541 38,000  Level FlightAware ADS-B
Sun 03:21:39 AM 36.6860 -7.8833 49° Northeast 471 542 38,000  Level FlightAware ADS-B
Sun 03:22:14 AM 36.7370 -7.8110 49° Northeast 473 544 38,000  Level FlightAware ADS-B
Sun 03:22:49 AM 36.7884 -7.7382 49° Northeast 474 545 38,000  Level FlightAware ADS-B
Sun 03:23:24 AM 36.8384 -7.6673 49° Northeast 476 548 38,000  Level FlightAware ADS-B
Sun 03:23:59 AM 36.8909 -7.5923 49° Northeast 477 549 38,000  Level FlightAware ADS-B
Sun 03:24:39 AM 36.9423 -7.5189 49° Northeast 477 549 38,000  Level FlightAware ADS-B
Sun 03:25:19 AM 37.0085 -7.4240 49° Northeast 477 549 38,000  Level FlightAware ADS-B
Sun 03:25:49 AM 37.0518 -7.3617 50° Northeast 477 549 38,000  Level FlightAware ADS-B
Sun 03:26:29 AM 37.1094 -7.2759 50° Northeast 483 556 38,000  Level FlightAware ADS-B
Sun 03:27:04 AM 37.1602 -7.2000 50° Northeast 477 549 38,000  Level FlightAware ADS-B
Sun 03:27:39 AM 37.2096 -7.1262 49° Northeast 481 554 38,000  Level FlightAware ADS-B
Sun 03:28:14 AM 37.2608 -7.0522 41° Northeast 471 542 38,000  Level FlightAware ADS-B
Sun 03:28:44 AM 37.3084 -6.9993 40° Northeast 466 536 38,000  Level FlightAware ADS-B
Sun 03:29:19 AM 37.3675 -6.9364 40° Northeast 468 539 38,000  Level FlightAware ADS-B
Sun 03:29:59 AM 37.4347 -6.8650 40° Northeast 469 540 38,000  Level FlightAware ADS-B
Sun 03:30:39 AM 37.5024 -6.7928 40° Northeast 472 543 38,000  Level FlightAware ADS-B
Sun 03:31:14 AM 37.5605 -6.7306 40° Northeast 468 539 38,000  Level FlightAware ADS-B
Sun 03:31:49 AM 37.6193 -6.6676 40° Northeast 467 537 38,000  Level FlightAware ADS-B
Sun 03:32:19 AM 37.6693 -6.6139 40° Northeast 466 536 38,000  Level FlightAware ADS-B
Sun 03:32:59 AM 37.7356 -6.5427 40° Northeast 467 537 38,000  Level FlightAware ADS-B
Sun 03:33:39 AM 37.8015 -6.4717 41° Northeast 472 543 38,000  Level FlightAware ADS-B
Sun 03:34:09 AM 37.8510 -6.4180 40° Northeast 467 537 38,000  Level FlightAware ADS-B
Sun 03:34:44 AM 37.9099 -6.3544 41° Northeast 467 537 38,000  Level FlightAware ADS-B
Sun 03:35:19 AM 37.9681 -6.2911 41° Northeast 470 541 38,000  Level FlightAware ADS-B
Sun 03:35:54 AM 38.0266 -6.2276 41° Northeast 473 544 38,000  Level FlightAware ADS-B
Sun 03:36:29 AM 38.0785 -6.1710 41° Northeast 474 545 38,000  Level FlightAware ADS-B
Sun 03:36:59 AM 38.1368 -6.1074 41° Northeast 474 545 38,000 171 Level FlightAware ADS-B
Sun 03:37:39 AM 38.2046 -6.0333 41° Northeast 476 548 38,200 400 Climbing FlightAware ADS-B
Sun 03:38:14 AM 38.2558 -5.9773 41° Northeast 486 559 38,500 514 Climbing FlightAware ADS-B
Sun 03:38:49 AM 38.3230 -5.9036 41° Northeast 488 562 38,800 462 Climbing FlightAware ADS-B
Sun 03:39:19 AM 38.3747 -5.8467 41° Northeast 489 563 39,000 514 Climbing FlightAware ADS-B
Sun 03:39:59 AM 38.4435 -5.7708 41° Northeast 491 565 39,400 560 Climbing FlightAware ADS-B
Sun 03:40:34 AM 38.4999 -5.7086 41° Northeast 492 566 39,700 514 Climbing FlightAware ADS-B
Sun 03:41:09 AM 38.5580 -5.6441 41° Northeast 491 565 40,000 277 Climbing FlightAware ADS-B
Sun 03:41:39 AM 38.6095 -5.5870 41° Northeast 489 563 40,000  Level FlightAware ADS-B
Sun 03:42:19 AM 38.6778 -5.5110 41° Northeast 489 563 40,000  Level FlightAware ADS-B
Sun 03:43:09 AM 38.7573 -5.4224 41° Northeast 487 560 40,000  Level FlightAware ADS-B
Sun 03:44:19 AM 38.8815 -5.2833 41° Northeast 480 552 40,000  Level FlightAware ADS-B
Sun 03:45:14 AM 38.9694 -5.1845 36° Northeast 481 554 40,000  Level FlightAware ADS-B
Sun 03:45:54 AM 39.0411 -5.1162 33° Northeast 483 556 40,000  Level FlightAware ADS-B
Sun 03:46:34 AM 39.1197 -5.0512 33° Northeast 477 549 40,000  Level FlightAware ADS-B
Sun 03:47:04 AM 39.1733 -5.0067 33° Northeast 477 549 40,000  Level FlightAware ADS-B
Sun 03:47:39 AM 39.2370 -4.9539 33° Northeast 483 556 40,000  Level FlightAware ADS-B
Sun 03:48:14 AM 39.3054 -4.8969 33° Northeast 483 556 40,000  Level FlightAware ADS-B
Sun 03:48:49 AM 39.3797 -4.8351 33° Northeast 477 549 40,000  Level FlightAware ADS-B
Sun 03:49:24 AM 39.4403 -4.7844 33° Northeast 478 550 40,000  Level FlightAware ADS-B
Sun 03:50:04 AM 39.5238 -4.7144 33° Northeast 479 551 40,000  Level FlightAware ADS-B
Sun 03:50:44 AM 39.5891 -4.6596 33° Northeast 479 551 40,000  Level FlightAware ADS-B
Sun 03:52:29 AM 39.7814 -4.4972 33° Northeast 483 556 40,000  Level FlightAware ADS-B
Sun 03:53:14 AM 39.8702 -4.4219 33° Northeast 479 551 40,000  Level FlightAware ADS-B
Sun 03:53:44 AM 39.9245 -4.3758 30° Northeast 469 540 40,000  Level FlightAware ADS-B
Sun 03:54:24 AM 39.9994 -4.3196 25° Northeast 469 540 40,000  Level FlightAware ADS-B
Sun 03:54:54 AM 40.0539 -4.2862 25° Northeast 465 535 40,000  Level FlightAware ADS-B
Sun 03:55:29 AM 40.1280 -4.2409 25° Northeast 464 534 40,000  Level FlightAware ADS-B
Sun 03:56:09 AM 40.2075 -4.1922 25° Northeast 461 531 40,000  Level FlightAware ADS-B
Sun 03:56:49 AM 40.2864 -4.1440 25° Northeast 464 534 40,000  Level FlightAware ADS-B
Sun 03:57:24 AM 40.3516 -4.1038 25° Northeast 464 534 40,000  Level FlightAware ADS-B
Sun 03:57:59 AM 40.4275 -4.0571 25° Northeast 466 536 40,000  Level FlightAware ADS-B
Sun 03:58:34 AM 40.4955 -4.0151 25° Northeast 468 539 40,000  Level FlightAware ADS-B
Sun 03:59:04 AM 40.5556 -3.9779 25° Northeast 467 537 40,000  Level FlightAware ADS-B
Sun 03:59:44 AM 40.6331 -3.9299 25° Northeast 468 539 40,000  Level FlightAware ADS-B
Sun 04:00:14 AM 40.6914 -3.8936 25° Northeast 476 548 40,000  Level FlightAware ADS-B
Sun 04:00:54 AM 40.7728 -3.8429 25° Northeast 477 549 40,000  Level FlightAware ADS-B
Sun 04:01:24 AM 40.8337 -3.8049 25° Northeast 476 548 40,000  Level FlightAware ADS-B
Sun 04:02:04 AM 40.9136 -3.7549 25° Northeast 479 551 40,000  Level FlightAware ADS-B
Sun 04:02:34 AM 40.9719 -3.7183 25° Northeast 480 552 40,000  Level FlightAware ADS-B
Sun 04:03:14 AM 41.0481 -3.6704 25° Northeast 479 551 40,000  Level FlightAware ADS-B
Sun 04:03:44 AM 41.1123 -3.6299 24° Northeast 479 551 40,000  Level FlightAware ADS-B
Sun 04:04:24 AM 41.1949 -3.5816 22° Northeast 470 541 40,000  Level FlightAware ADS-B
Sun 04:04:54 AM 41.2532 -3.5497 22° Northeast 469 540 40,000  Level FlightAware ADS-B
Sun 04:05:34 AM 41.3296 -3.5078 22° Northeast 469 540 40,000  Level FlightAware ADS-B
Sun 04:06:04 AM 41.3966 -3.4711 22° Northeast 469 540 40,000  Level FlightAware ADS-B
Sun 04:06:49 AM 41.4890 -3.4203 22° Northeast 468 539 40,000  Level FlightAware ADS-B
Sun 04:08:06 AM 41.6540 -3.3292 22° Northeast 476 548 40,000  Level FlightAware ADS-B
Sun 04:09:05 AM 41.7549 -3.2733 23° Northeast 477 549 40,000  Level FlightAware ADS-B
Sun 04:09:51 AM 41.8618 -3.2138 23° Northeast 479 551 40,000  Level FlightAware ADS-B
Sun 04:10:21 AM 41.9315 -3.1749 23° Northeast 480 552 40,000  Level FlightAware ADS-B
Sun 04:11:06 AM 41.9975 -3.1381 23° Northeast 480 552 40,000  Level FlightAware ADS-B
Sun 04:11:51 AM 42.1159 -3.0715 23° Northeast 481 554 40,000  Level FlightAware ADS-B
Sun 04:12:21 AM 42.1748 -3.0383 23° Northeast 482 555 40,000  Level FlightAware ADS-B
Sun 04:13:06 AM 42.2701 -2.9846 23° Northeast 484 557 40,000  Level FlightAware ADS-B
Sun 04:13:36 AM 42.3199 -2.9564 25° Northeast 483 556 40,000  Level FlightAware ADS-B
Sun 04:14:21 AM 42.4203 -2.8932 34° Northeast 484 557 40,000  Level FlightAware ADS-B
Sun 04:15:06 AM 42.5046 -2.8169 41° Northeast 487 560 40,000  Level FlightAware ADS-B
Sun 04:15:37 AM 42.5584 -2.7540 42° Northeast 489 563 40,000  Level FlightAware ADS-B
Sun 04:16:21 AM 42.6321 -2.6652 42° Northeast 493 567 40,000  Level FlightAware ADS-B
Sun 04:17:06 AM 42.7082 -2.5732 42° Northeast 492 566 40,000  Level FlightAware ADS-B
Sun 04:17:36 AM 42.7581 -2.5125 42° Northeast 492 566 40,000  Level FlightAware ADS-B
Sun 04:18:21 AM 42.8359 -2.4176 42° Northeast 495 570 40,000  Level FlightAware ADS-B
Sun 04:18:51 AM 42.8895 -2.3521 42° Northeast 496 571 40,000  Level FlightAware ADS-B
Sun 04:19:36 AM 42.9523 -2.2752 42° Northeast 498 573 40,000  Level FlightAware ADS-B
Sun 04:20:22 AM 43.0432 -2.1634 42° Northeast 501 577 40,000  Level FlightAware ADS-B
Sun 04:20:51 AM 43.0926 -2.1024 42° Northeast 503 579 40,000  Level FlightAware ADS-B
Sun 04:21:36 AM 43.1639 -2.0140 42° Northeast 506 582 40,000  Level FlightAware ADS-B
Sun 04:22:21 AM 43.2509 -1.9059 42° Northeast 507 583 40,000  Level FlightAware ADS-B
Sun 04:23:07 AM 43.3222 -1.8173 36° Northeast 507 583 40,000  Level FlightAware ADS-B
Sun 04:23:52 AM 43.4140 -1.7244 27° Northeast 507 583 40,000  Level FlightAware ADS-B
Sun 04:24:37 AM 43.4974 -1.6667 22° Northeast 506 582 40,000  Level FlightAware ADS-B
Sun 04:25:23 AM 43.6004 -1.6093 22° Northeast 508 585 40,000  Level FlightAware ADS-B
Sun 04:25:52 AM 43.6710 -1.5697 22° Northeast 508 585 40,000  Level FlightAware ADS-B
Sun 04:26:38 AM 43.7695 -1.5145 22° Northeast 508 585 40,000  Level FlightAware ADS-B
Sun 04:27:07 AM 43.8295 -1.4807 22° Northeast 508 585 40,000  Level FlightAware ADS-B
Sun 04:27:53 AM 43.9308 -1.4237 22° Northeast 509 586 40,000  Level FlightAware ADS-B
Sun 04:28:38 AM 44.0096 -1.3791 22° Northeast 509 586 40,000  Level FlightAware ADS-B
Sun 04:29:22 AM 44.1204 -1.3162 22° Northeast 509 586 40,000  Level FlightAware ADS-B
Sun 04:30:08 AM 44.2157 -1.2619 22° Northeast 512 589 40,000  Level FlightAware ADS-B
Sun 04:30:53 AM 44.3200 -1.2023 22° Northeast 511 588 40,000  Level FlightAware ADS-B
Sun 04:31:52 AM 44.4280 -1.1404 22° Northeast 512 589 40,000  Level FlightAware ADS-B
Sun 04:32:23 AM 44.5166 -1.0894 22° Northeast 512 589 40,000  Level FlightAware ADS-B
Sun 04:33:37 AM 44.6719 -1.0004 22° Northeast 515 593 40,000  Level FlightAware ADS-B
Sun 04:34:22 AM 44.7864 -0.9344 22° Northeast 517 595 40,000  Level FlightAware ADS-B
Sun 04:35:37 AM 44.9520 -0.8384 22° Northeast 514 592 40,000  Level FlightAware ADS-B
Sun 04:36:53 AM 45.1189 -0.7411 22° Northeast 518 596 40,000  Level FlightAware ADS-B
Sun 04:38:08 AM 45.2730 -0.6506 22° Northeast 515 593 40,000  Level FlightAware ADS-B
Sun 04:40:24 AM 45.5542 -0.4899 13° North 517 595 40,000 -421 Level FlightAware ADS-B
Sun 04:46:13 AM 46.3824 -0.2154 13° North 509 586 36,600 -621 Descending FlightAware ADS-B
Sun 04:46:41 AM 46.4485 -0.1932 13° North 499 574 36,100 -1,391 Descending FlightAware ADS-B
Sun 04:47:22 AM 46.5413 -0.1621 13° North 498 573 35,000 -1,714 Descending FlightAware ADS-B
Sun 04:47:51 AM 46.6144 -0.1373 13° North 495 570 34,100 -1,742 Descending FlightAware ADS-B
Sun 04:48:24 AM 46.6816 -0.1147 13° North 499 574 33,200 -1,692 Descending FlightAware ADS-B
Sun 04:49:09 AM 46.7805 -0.0812 13° North 499 574 31,900 -1,820 Descending FlightAware ADS-B
Sun 04:49:53 AM 46.8847 -0.0457 13° North 498 573 30,500 -1,857 Descending FlightAware ADS-B
Sun 04:50:33 AM 46.9783 -0.0137 14° North 483 556 29,300 -1,500 Descending FlightAware ADS-B
Sun 04:51:13 AM 47.0650 0.0178 25° Northeast 477 549 28,500 -1,014 Descending FlightAware ADS-B
Sun 04:51:44 AM 47.1145 0.0521 30° Northeast 477 549 28,100 -429 Descending FlightAware ADS-B
Sun 04:52:23 AM 47.1753 0.1038 30° Northeast 481 554 28,000 -86 Descending FlightAware ADS-B
Sun 04:52:54 AM 47.2542 0.1717 31° Northeast 483 556 28,000  Level FlightAware ADS-B
Sun 04:53:34 AM 47.3275 0.2376 31° Northeast 484 557 28,000  Level FlightAware ADS-B
Sun 04:54:04 AM 47.3855 0.2898 31° Northeast 485 558 28,000  Level FlightAware ADS-B
Sun 04:54:43 AM 47.4537 0.3509 31° Northeast 483 556 28,000  Level FlightAware ADS-B
Sun 04:55:14 AM 47.5238 0.4140 31° Northeast 485 558 28,000 -265 Level FlightAware ADS-B
Sun 04:55:51 AM 47.5983 0.4815 31° Northeast 483 556 27,700 -686 Descending FlightAware ADS-B
Sun 04:56:24 AM 47.6579 0.5354 31° Northeast 494 568 27,200 -986 Descending FlightAware ADS-B
Sun 04:57:04 AM 47.7412 0.6112 31° Northeast 497 572 26,500 -943 Descending FlightAware ADS-B
Sun 04:57:34 AM 47.7947 0.6600 32° Northeast 500 575 26,100 -900 Descending FlightAware ADS-B
Sun 04:58:04 AM 47.8550 0.7151 32° Northeast 497 572 25,600 -1,029 Descending FlightAware ADS-B
Sun 04:58:44 AM 47.9324 0.7861 32° Northeast 495 570 24,900 -960 Descending FlightAware ADS-B
Sun 04:59:19 AM 47.9915 0.8405 32° Northeast 490 564 24,400 -1,029 Descending FlightAware ADS-B
Sun 04:59:54 AM 48.0686 0.9117 32° Northeast 487 560 23,700 -1,040 Descending FlightAware ADS-B
Sun 05:00:34 AM 48.1433 0.9808 32° Northeast 481 554 23,100 -943 Descending FlightAware ADS-B
Sun 05:01:04 AM 48.1987 1.0323 32° Northeast 477 549 22,600 -1,000 Descending FlightAware ADS-B
Sun 05:01:34 AM 48.2559 1.0857 32° Northeast 473 544 22,100 -943 Descending FlightAware ADS-B
Sun 05:02:14 AM 48.3280 1.1530 32° Northeast 468 539 21,500 -975 Descending FlightAware ADS-B
Sun 05:02:54 AM 48.3992 1.2198 32° Northeast 442 509 20,800 -1,114 Descending FlightAware ADS-B
Sun 05:03:24 AM 48.4512 1.2686 36° Northeast 423 487 20,200 -1,629 Descending FlightAware ADS-B
Sun 05:04:04 AM 48.5141 1.3367 224° Southwest 424 488 18,900 -1,333 Descending FlightAware ADS-B
Sun 05:04:09 AM 48.5002 1.3163 51° Northeast 422 486 19,200 -1,800 Climbing FlightAware ADS-B
Sun 05:04:14 AM 48.5259 1.3639 63° Northeast 422 486 18,600 -2,743 Descending FlightAware ADS-B
Sun 05:04:44 AM 48.5495 1.4332 59° Northeast 421 484 17,600 -1,900 Descending FlightAware ADS-B
Sun 05:05:14 AM 48.5815 1.5141 44° Northeast 414 476 16,700 -1,800 Descending FlightAware ADS-B
Sun 05:05:44 AM 48.6233 1.5757 44° Northeast 407 468 15,800 -1,457 Descending FlightAware ADS-B
Sun 05:06:24 AM 48.6757 1.6525 44° Northeast 398 458 15,000 -600 Descending FlightAware ADS-B
Sun 05:07:04 AM 48.7288 1.7300 44° Northeast 400 460 15,000  Level FlightAware ADS-B
Sun 05:07:34 AM 48.7697 1.7897 44° Northeast 401 461 15,000  Level FlightAware ADS-B
Sun 05:08:14 AM 48.8226 1.8675 44° Northeast 400 460 15,000 -514 Level FlightAware ADS-B
Sun 05:08:44 AM 48.8580 1.9193 54° Northeast 399 459 14,400 -1,529 Descending FlightAware ADS-B
Sun 05:09:05 AM 48.8862 1.9775 78° East 394 453 13,700 -1,765 Descending FlightAware ADS-B
Sun 05:09:18 AM 48.8910 2.0119 85° East 384 442 13,400 -955 Descending FlightAware ADS-B
Sun 05:09:49 AM 48.8952 2.0873 85° East 367 422 13,000 -364 Descending FlightAware ADS-B
Sun 05:10:24 AM 48.9003 2.1741 85° East 340 391 13,000  Level FlightAware ADS-B
Sun 05:11:02 AM 48.9055 2.2652 85° East 340 391 13,000  Level FlightAware ADS-B
Sun 05:11:39 AM 48.9102 2.3505 85° East 345 397 13,000  Level FlightAware ADS-B
Sun 05:12:09 AM 48.9142 2.4230 87° East 341 392 13,000 -500 Level FlightAware ADS-B
Sun 05:12:39 AM 48.9166 2.4923 89° East 338 389 12,500 -686 Descending FlightAware ADS-B
Sun 05:13:19 AM 48.9177 2.5835 89° East 313 360 12,200 -975 Descending FlightAware ADS-B
Sun 05:13:59 AM 48.9187 2.6693 89° East 292 336 11,200 -1,714 Descending FlightAware ADS-B
Sun 05:14:29 AM 48.9193 2.7282 89° East 286 329 10,200 -1,800 Descending FlightAware ADS-B
Sun 05:14:49 AM 48.9197 2.7722 89° East 283 326 9,700 -1,200 Descending FlightAware ADS-B
Sun 05:15:14 AM 48.9202 2.8212 89° East 280 322 9,300 -1,029 Descending FlightAware ADS-B
Sun 05:15:24 AM 48.9204 2.8420 89° East 280 322 9,100 -1,000 Descending FlightAware ADS-B
Sun 05:15:44 AM 48.9208 2.8777 89° East 278 320 8,800 -933 Descending FlightAware ADS-B
Sun 05:16:09 AM 48.9212 2.9281 89° East 272 313 8,400 -933 Descending FlightAware ADS-B
Sun 05:16:29 AM 48.9216 2.9639 89° East 270 311 8,100 -900 Descending FlightAware ADS-B
Sun 05:16:49 AM 48.9219 3.0006 89° East 269 310 7,800 -900 Descending FlightAware ADS-B
Sun 05:17:09 AM 48.9223 3.0400 79° East 270 311 7,500 -1,000 Descending FlightAware ADS-B
Sun 05:17:19 AM 48.9247 3.0583 62° Northeast 273 314 7,300 -900 Descending FlightAware ADS-B
Sun 05:17:29 AM 48.9295 3.0718 50° Northeast 275 316 7,200 -800 Descending FlightAware ADS-B
Sun 05:17:34 AM 48.9341 3.0801 38° Northeast 273 314 7,100 -1,200 Descending FlightAware ADS-B
Sun 05:17:39 AM 48.9405 3.0877 28° Northeast 269 310 7,000 -1,200 Descending FlightAware ADS-B
Sun 05:17:44 AM 48.9447 3.0911 15° North 259 298 6,900 -800 Descending FlightAware ADS-B
Sun 05:17:54 AM 48.9589 3.0967 North 255 293 6,800 -1,200 Descending FlightAware ADS-B
Sun 05:18:04 AM 48.9686 3.0981 North 246 283 6,500 -1,886 Descending FlightAware ADS-B
Sun 05:18:29 AM 48.9986 3.1002 351° North 254 292 5,700 -1,800 Descending FlightAware ADS-B
Sun 05:18:34 AM 49.0060 3.0985 337° Northwest 251 289 5,600 -800 Descending FlightAware ADS-B
Sun 05:18:44 AM 49.0142 3.0931 322° Northwest 242 278 5,500 -800 Descending FlightAware ADS-B
Sun 05:18:49 AM 49.0190 3.0873 311° West 236 272 5,400 -1,200 Descending FlightAware ADS-B
Sun 05:18:54 AM 49.0235 3.0795 305° West 231 266 5,300 -900 Descending FlightAware ADS-B
Sun 05:19:09 AM 49.0325 3.0597 304° West 231 266 5,100 -514 Descending FlightAware ADS-B
Sun 05:19:29 AM 49.0425 3.0368 294° West 228 262 5,000 -400 Descending FlightAware ADS-B
Sun 05:19:39 AM 49.0484 3.0169 274° West 225 259 4,900 -240 Descending FlightAware ADS-B
Sun 05:19:54 AM 49.0495 2.9954 268° West 224 258 4,900  Level FlightAware ADS-B
Sun 05:20:14 AM 49.0487 2.9651 265° West 213 245 4,900  Level FlightAware ADS-B
Sun 05:20:29 AM 49.0474 2.9440 263° West 199 229 4,900  Level FlightAware ADS-B
Sun 05:20:44 AM 49.0459 2.9241 263° West 184 212 4,900 -200 Level FlightAware ADS-B
Sun 05:20:59 AM 49.0443 2.9055 266° West 176 203 4,800 -750 Descending FlightAware ADS-B
Sun 05:21:24 AM 49.0430 2.8741 265° West 173 199 4,400 -1,067 Descending FlightAware ADS-B
Sun 05:21:44 AM 49.0416 2.8497 266° West 174 200 4,000 -1,200 Descending FlightAware ADS-B
Sun 05:22:04 AM 49.0405 2.8245 266° West 176 203 3,600 -1,200 Descending FlightAware ADS-B
Sun 05:22:24 AM 49.0392 2.7984 265° West 180 207 3,200 -1,029 Descending FlightAware ADS-B
Sun 05:22:39 AM 49.0382 2.7793 265° West 177 204 3,000 -686 Descending FlightAware ADS-B
Sun 05:22:59 AM 49.0370 2.7577 266° West 174 200 2,800 -900 Descending FlightAware ADS-B
Sun 05:23:19 AM 49.0358 2.7339 265° West 175 201 2,400 -933 Descending FlightAware ADS-B
Sun 05:23:44 AM 49.0341 2.7018 265° West 172 198 2,100 -933 Descending FlightAware ADS-B
Sun 05:24:04 AM 49.0328 2.6774 266° West 166 191 1,700 -900 Descending FlightAware ADS-B
Sun 05:24:24 AM 49.0317 2.6545 265° West 148 170 1,500 -750 Descending FlightAware ADS-B
Sun 05:24:44 AM 49.0306 2.6352 265° West 142 163 1,200 -857 Descending FlightAware ADS-B
Sun 05:24:59 AM 49.0297 2.6193 266° West 134 154 1,000 -686 Descending FlightAware ADS-B
Sun 05:25:19 AM 49.0288 2.6013 265° West 130 150 800 -750 Descending FlightAware ADS-B
Sun 05:25:39 AM 49.0277 2.5832 266° West 132 152 500 -800 Descending FlightAware ADS-B
Sun 05:26:04 AM 49.0265 2.5593 266° West 131 151 200 -720 Descending FlightAware ADS-B

Login

Don't have an account? Register now (free) for customized features, flight alerts, and more!